Terminal Aerodrome Forecast
Issued by NWS Shreveport, LA

Home | Current Version | Previous Version | Text Only | Print | Product List | Glossary On
Versions: 1 2 3 4 5 6 7 8 9 10 11 12 13 14 15 16
000
FTUS44 KSHV 270522
TAFTYR
TAF
KTYR 270522Z 2706/2806 18015G23KT P6SM VCSH BKN050
     FM270800 18014KT P6SM OVC015
     FM271900 26007KT P6SM OVC035
     FM280100 VRB03KT P6SM BKN050=

USA.gov is the U.S. government's official web portal to all federal, state and local government web resources and services.